createdAt,value
2023-02-03T00:01:57.120Z,4.77
2023-02-03T00:04:41.108Z,5.00
2023-02-03T00:07:25.120Z,3.47
2023-02-03T00:10:09.925Z,3.70
2023-02-03T00:12:53.939Z,4.30
2023-02-03T00:15:39.221Z,4.50
2023-02-03T00:18:23.074Z,4.20
2023-02-03T00:21:07.207Z,5.10
2023-02-03T00:23:51.000Z,4.67
2023-02-03T00:26:35.006Z,4.37
2023-02-03T00:29:21.719Z,4.43
2023-02-03T00:32:07.388Z,4.07
2023-02-03T00:34:51.424Z,4.07
2023-02-03T00:37:35.183Z,4.33
2023-02-03T00:40:19.893Z,4.23
2023-02-03T00:43:03.695Z,4.00
2023-02-03T00:45:47.512Z,4.20
2023-02-03T00:48:32.595Z,4.67
2023-02-03T00:51:16.436Z,4.17
2023-02-03T00:54:00.280Z,4.00
2023-02-03T00:56:46.594Z,4.43
2023-02-03T00:59:30.537Z,4.23
2023-02-03T01:02:14.376Z,4.07
2023-02-03T01:04:59.571Z,4.00
2023-02-03T01:07:43.424Z,4.30
2023-02-03T01:10:28.970Z,4.97
2023-02-03T01:13:12.961Z,4.53
2023-02-03T01:15:57.271Z,4.57
2023-02-03T01:18:44.176Z,4.30
2023-02-03T01:21:29.918Z,4.00
2023-02-03T01:24:15.276Z,4.50
2023-02-03T01:26:59.291Z,4.40
2023-02-03T01:29:45.363Z,4.00
2023-02-03T01:32:29.503Z,4.33
2023-02-03T01:35:14.267Z,4.90
2023-02-03T01:38:01.239Z,4.27
2023-02-03T01:40:46.035Z,4.37
2023-02-03T01:43:32.435Z,4.63
2023-02-03T01:46:27.920Z,5.30
2023-02-03T01:49:14.659Z,4.43
2023-02-03T01:51:58.798Z,4.03
2023-02-03T01:54:47.051Z,4.80
2023-02-03T01:57:35.966Z,4.73
2023-02-03T02:00:20.967Z,4.60
2023-02-03T02:03:07.213Z,4.23
2023-02-03T02:05:58.086Z,4.30
2023-02-03T02:08:45.806Z,5.07
2023-02-03T02:11:31.612Z,5.33
2023-02-03T02:14:16.007Z,5.23
2023-02-03T02:17:08.379Z,4.70
2023-02-03T02:20:23.584Z,5.53
2023-02-03T02:23:42.075Z,6.17
2023-02-03T02:26:44.405Z,5.80
2023-02-03T02:30:15.996Z,5.57
2023-02-03T02:33:12.120Z,6.37
2023-02-03T02:36:03.774Z,5.57
2023-02-03T02:38:58.983Z,4.60
2023-02-03T02:41:48.987Z,4.83
2023-02-03T02:44:36.859Z,5.07
2023-02-03T02:47:22.656Z,5.00
2023-02-03T02:50:15.295Z,4.73
2023-02-03T02:53:00.394Z,5.13
2023-02-03T02:55:46.157Z,5.40
2023-02-03T02:58:31.316Z,5.87
2023-02-03T03:01:15.866Z,5.33
2023-02-03T03:04:03.632Z,5.00
2023-02-03T03:06:53.997Z,5.33
2023-02-03T03:09:42.917Z,4.47
2023-02-03T03:12:31.241Z,4.83
2023-02-03T03:15:20.512Z,4.87
2023-02-03T03:18:09.280Z,4.50
2023-02-03T03:20:57.322Z,5.13
2023-02-03T03:23:47.029Z,5.87
2023-02-03T03:26:36.043Z,6.07
2023-02-03T03:29:23.687Z,5.70
2023-02-03T03:32:07.737Z,6.63
2023-02-03T03:34:52.592Z,6.30
2023-02-03T03:37:39.464Z,5.40
2023-02-03T03:40:29.787Z,5.43
2023-02-03T03:43:18.085Z,5.27
2023-02-03T03:46:08.527Z,4.93
2023-02-03T03:48:55.774Z,5.30
2023-02-03T03:51:44.964Z,4.90
2023-02-03T03:54:31.661Z,8.00
2023-02-03T03:57:23.172Z,6.60
2023-02-03T04:00:10.440Z,7.07
2023-02-03T04:03:01.083Z,6.50
2023-02-03T04:05:45.183Z,6.27
2023-02-03T04:08:28.934Z,6.67
2023-02-03T04:11:32.767Z,6.00
2023-02-03T04:14:17.887Z,5.97
2023-02-03T04:17:02.278Z,5.77
2023-02-03T04:19:46.012Z,6.40
2023-02-03T04:22:29.780Z,5.83
2023-02-03T04:25:13.788Z,6.17
2023-02-03T04:27:57.602Z,6.13
2023-02-03T04:30:42.839Z,5.63
2023-02-03T04:33:26.553Z,5.50
2023-02-03T04:36:10.747Z,5.80
2023-02-03T04:38:54.617Z,5.40
2023-02-03T04:41:38.463Z,6.73
2023-02-03T04:44:22.182Z,7.90
2023-02-03T04:47:07.433Z,16.50
2023-02-03T04:49:51.261Z,10.97
2023-02-03T04:52:34.997Z,18.87
2023-02-03T04:55:18.865Z,16.30
2023-02-03T04:58:03.017Z,14.90
2023-02-03T05:00:46.909Z,9.97
2023-02-03T05:03:32.111Z,12.20
2023-02-03T05:06:16.076Z,17.23
2023-02-03T05:09:00.305Z,27.60
2023-02-03T05:11:44.086Z,17.13
2023-02-03T05:14:27.961Z,13.17
2023-02-03T05:17:11.787Z,7.53
2023-02-03T05:19:56.947Z,5.90
2023-02-03T05:22:40.996Z,5.53
2023-02-03T05:25:24.809Z,6.50
2023-02-03T05:28:08.709Z,13.30
2023-02-03T05:30:52.503Z,12.87
2023-02-03T05:33:36.395Z,10.73
2023-02-03T05:36:21.589Z,9.40
2023-02-03T05:39:05.594Z,6.10
2023-02-03T05:41:56.470Z,6.10
2023-02-03T05:44:41.080Z,5.67
2023-02-03T05:47:24.843Z,5.50
2023-02-03T05:50:09.299Z,5.10
2023-02-03T05:52:54.491Z,4.80
2023-02-03T05:55:38.927Z,6.50
2023-02-03T05:58:22.813Z,7.83
2023-02-03T06:01:06.812Z,8.43
2023-02-03T06:03:50.989Z,9.53
2023-02-03T06:06:35.281Z,11.73
2023-02-03T06:09:20.533Z,12.10
2023-02-03T06:12:04.714Z,17.17
2023-02-03T06:14:48.524Z,14.60
2023-02-03T06:17:32.695Z,17.00
2023-02-03T06:20:18.759Z,13.90
2023-02-03T06:23:02.751Z,8.77
2023-02-03T06:25:50.021Z,8.97
2023-02-03T06:28:33.976Z,7.47
2023-02-03T06:31:18.056Z,6.67
2023-02-03T06:34:02.718Z,6.70
2023-02-03T06:36:47.375Z,6.50
2023-02-03T06:39:31.080Z,6.53
2023-02-03T06:42:16.551Z,7.10
2023-02-03T06:45:00.520Z,6.90
2023-02-03T06:47:45.898Z,7.50
2023-02-03T06:50:30.048Z,7.37
2023-02-03T06:53:14.040Z,7.53
2023-02-03T06:55:57.881Z,7.70
2023-02-03T06:58:43.088Z,8.57
2023-02-03T07:01:27.221Z,7.90
2023-02-03T07:04:11.366Z,15.27
2023-02-03T07:06:55.533Z,12.93
2023-02-03T07:09:39.697Z,4.33
2023-02-03T07:12:23.701Z,7.57
2023-02-03T07:15:10.656Z,3.80
2023-02-03T07:17:55.649Z,5.50
2023-02-03T07:20:39.747Z,6.60
2023-02-03T07:23:23.806Z,9.30
2023-02-03T07:26:09.209Z,9.70
2023-02-03T07:28:54.739Z,4.20
2023-02-03T07:31:40.358Z,8.97
2023-02-03T07:34:24.505Z,7.70
2023-02-03T07:37:08.599Z,7.80
2023-02-03T07:39:53.822Z,7.10
2023-02-03T07:42:39.635Z,8.50
2023-02-03T07:45:24.944Z,5.77
2023-02-03T07:48:10.652Z,13.60
2023-02-03T07:50:54.488Z,6.37
2023-02-03T07:53:38.565Z,11.27
2023-02-03T07:56:22.766Z,17.03
2023-02-03T07:59:06.744Z,3.27
2023-02-03T08:01:50.718Z,4.20
2023-02-03T08:04:36.127Z,3.27
2023-02-03T08:07:20.204Z,3.30
2023-02-03T08:10:04.253Z,3.67
2023-02-03T08:12:48.533Z,3.20
2023-02-03T08:15:32.672Z,4.00
2023-02-03T08:18:16.752Z,3.67
2023-02-03T08:21:03.760Z,3.70
2023-02-03T08:23:47.792Z,3.23
2023-02-03T08:26:31.803Z,3.60
2023-02-03T08:29:15.800Z,3.33
2023-02-03T08:32:00.144Z,3.80
2023-02-03T08:34:44.480Z,3.47
2023-02-03T08:37:31.931Z,3.57
2023-02-03T08:40:15.889Z,3.53
2023-02-03T08:42:59.955Z,3.17
2023-02-03T08:45:44.347Z,3.70
2023-02-03T08:48:28.405Z,3.47
2023-02-03T08:51:13.645Z,3.13
2023-02-03T08:53:59.098Z,3.33
2023-02-03T08:56:43.378Z,3.63
2023-02-03T08:59:27.373Z,3.47
2023-02-03T09:02:15.828Z,4.53
2023-02-03T09:05:00.000Z,3.77
2023-02-03T09:07:44.304Z,3.23
2023-02-03T09:10:30.219Z,3.97
2023-02-03T09:13:14.591Z,3.60
2023-02-03T09:16:01.943Z,3.20
2023-02-03T09:18:46.783Z,3.40
2023-02-03T09:21:34.885Z,2.97
2023-02-03T09:24:24.791Z,4.23
2023-02-03T09:27:10.113Z,3.10
2023-02-03T09:29:53.909Z,2.73
2023-02-03T09:32:37.622Z,2.80
2023-02-03T09:35:21.486Z,2.03
2023-02-03T09:38:05.223Z,2.73
2023-02-03T09:41:09.399Z,2.10
2023-02-03T09:44:02.718Z,2.37
2023-02-03T09:46:49.995Z,2.40
2023-02-03T09:49:41.247Z,2.27
2023-02-03T09:52:26.823Z,2.80
2023-02-03T09:55:20.349Z,2.40
2023-02-03T09:58:06.995Z,2.40
2023-02-03T10:00:54.959Z,2.37
2023-02-03T10:03:47.433Z,2.60
2023-02-03T10:06:37.311Z,2.67
2023-02-03T10:09:27.542Z,2.40
2023-02-03T10:12:32.263Z,2.20
2023-02-03T10:15:36.988Z,2.40
2023-02-03T10:18:26.726Z,2.50
2023-02-03T10:21:17.150Z,2.43
2023-02-03T10:24:03.181Z,2.47
2023-02-03T10:26:47.792Z,2.20
2023-02-03T10:29:37.019Z,3.13
2023-02-03T10:32:20.787Z,2.60
2023-02-03T10:35:12.613Z,2.50
2023-02-03T10:37:59.522Z,2.43
2023-02-03T10:40:43.460Z,2.00
2023-02-03T10:43:46.716Z,2.27
2023-02-03T10:46:33.503Z,2.40
2023-02-03T10:49:19.237Z,2.40
2023-02-03T10:52:05.089Z,2.40
2023-02-03T10:54:48.934Z,2.80
2023-02-03T10:57:32.796Z,4.00
2023-02-03T11:00:24.553Z,2.97
2023-02-03T11:03:25.035Z,3.40
2023-02-03T11:06:11.590Z,3.70
2023-02-03T11:08:57.752Z,5.00
2023-02-03T11:11:42.058Z,2.40
2023-02-03T11:14:25.878Z,2.70
2023-02-03T11:17:14.076Z,2.60
2023-02-03T11:20:06.424Z,2.77
2023-02-03T11:22:50.523Z,2.50
2023-02-03T11:25:35.857Z,2.07
2023-02-03T11:28:19.846Z,2.83
2023-02-03T11:31:03.855Z,2.83
2023-02-03T11:33:55.988Z,2.47
2023-02-03T11:36:39.872Z,2.70
2023-02-03T11:39:29.299Z,2.77
2023-02-03T11:42:24.901Z,3.70
2023-02-03T11:45:16.669Z,3.30
2023-02-03T11:48:03.854Z,4.40
2023-02-03T11:50:50.856Z,4.70
2023-02-03T11:53:57.145Z,2.67
2023-02-03T11:56:59.026Z,3.27
2023-02-03T11:59:58.654Z,3.77
2023-02-03T12:03:23.869Z,3.03
2023-02-03T12:06:30.226Z,2.30
2023-02-03T12:09:24.032Z,2.70
2023-02-03T12:12:30.785Z,3.00
2023-02-03T12:15:53.023Z,2.27
2023-02-03T12:18:52.879Z,2.77
2023-02-03T12:21:47.622Z,2.47
2023-02-03T12:24:40.665Z,2.60
2023-02-03T12:27:36.580Z,2.90
2023-02-03T12:30:27.133Z,3.00
2023-02-03T12:33:18.737Z,2.47
2023-02-03T12:36:09.638Z,3.40
2023-02-03T12:38:59.260Z,5.40
2023-02-03T12:41:49.940Z,5.77
2023-02-03T12:44:41.805Z,4.10
2023-02-03T12:47:31.677Z,6.93
2023-02-03T12:50:19.356Z,4.33
2023-02-03T12:53:12.577Z,4.90
2023-02-03T12:56:03.024Z,4.83
2023-02-03T12:58:51.766Z,3.90
2023-02-03T13:01:39.301Z,3.37
2023-02-03T13:04:34.057Z,3.60
2023-02-03T13:07:26.356Z,2.53
2023-02-03T13:10:20.623Z,2.57
2023-02-03T13:13:07.735Z,2.70
2023-02-03T13:15:54.355Z,2.50
2023-02-03T13:18:41.440Z,2.20
2023-02-03T13:21:25.311Z,2.23
2023-02-03T13:24:12.212Z,2.10
2023-02-03T13:27:15.361Z,2.60
2023-02-03T13:30:22.974Z,2.40
2023-02-03T13:33:38.020Z,2.30
2023-02-03T13:36:55.081Z,2.03
2023-02-03T13:39:52.803Z,2.00
2023-02-03T13:42:42.879Z,2.00
2023-02-03T13:45:30.116Z,2.40
2023-02-03T13:48:19.686Z,2.37
2023-02-03T13:51:08.529Z,2.60
2023-02-03T13:54:00.144Z,2.47
2023-02-03T13:56:45.590Z,2.47
2023-02-03T13:59:43.182Z,1.97
2023-02-03T14:02:54.849Z,2.20
2023-02-03T14:05:50.956Z,3.90
2023-02-03T14:08:53.761Z,2.80
2023-02-03T14:11:43.369Z,2.70
2023-02-03T14:14:46.689Z,2.60
2023-02-03T14:18:21.704Z,4.43
2023-02-03T14:21:19.483Z,3.07
2023-02-03T14:24:09.880Z,2.50
2023-02-03T14:26:56.042Z,2.53
2023-02-03T14:29:39.987Z,2.33
2023-02-03T14:32:25.226Z,2.37
2023-02-03T14:35:18.493Z,2.50
2023-02-03T14:38:05.336Z,2.43
2023-02-03T14:40:54.987Z,2.93
2023-02-03T14:43:45.022Z,3.67
2023-02-03T14:46:45.522Z,2.57
2023-02-03T14:49:55.347Z,3.50
2023-02-03T14:52:55.143Z,4.60
2023-02-03T14:55:53.714Z,2.77
2023-02-03T14:58:43.123Z,7.77
2023-02-03T15:01:48.112Z,7.20
2023-02-03T15:04:32.107Z,6.87
2023-02-03T15:07:37.424Z,6.73
2023-02-03T15:10:23.442Z,5.27
2023-02-03T15:13:07.308Z,2.90
2023-02-03T15:15:54.856Z,3.23
2023-02-03T15:18:40.953Z,3.40
2023-02-03T15:21:25.090Z,3.47
2023-02-03T15:24:15.984Z,3.10
2023-02-03T15:26:59.909Z,3.40
2023-02-03T15:29:43.765Z,12.87
2023-02-03T15:32:34.164Z,10.00
2023-02-03T15:35:21.988Z,13.20
2023-02-03T15:38:11.451Z,8.83
2023-02-03T15:40:59.124Z,10.03
2023-02-03T15:43:45.601Z,18.30
2023-02-03T15:46:33.370Z,12.50
2023-02-03T15:49:23.003Z,9.70
2023-02-03T15:52:13.261Z,14.73
2023-02-03T15:55:08.908Z,28.80
2023-02-03T15:57:54.218Z,14.90
2023-02-03T16:00:41.742Z,22.30
2023-02-03T16:03:34.769Z,22.47
2023-02-03T16:06:25.530Z,17.07
2023-02-03T16:09:36.373Z,12.27
2023-02-03T16:12:24.379Z,11.00
2023-02-03T16:15:23.922Z,9.33
2023-02-03T16:18:17.915Z,12.60
2023-02-03T16:21:01.805Z,12.53
2023-02-03T16:23:51.207Z,11.37
2023-02-03T16:26:36.785Z,10.90
2023-02-03T16:29:37.690Z,8.33
2023-02-03T16:32:40.124Z,8.33
2023-02-03T16:35:41.820Z,8.10
2023-02-03T16:38:42.917Z,10.77
2023-02-03T16:41:44.232Z,9.97
2023-02-03T16:44:45.807Z,10.37
2023-02-03T16:47:49.995Z,10.47
2023-02-03T16:50:52.020Z,10.90
2023-02-03T16:53:35.779Z,12.33
2023-02-03T16:56:19.650Z,10.33
2023-02-03T16:59:03.488Z,18.70
2023-02-03T17:01:47.329Z,19.97
2023-02-03T17:04:32.508Z,13.47
2023-02-03T17:07:16.266Z,12.47
2023-02-03T17:10:00.103Z,12.10
2023-02-03T17:12:44.065Z,17.73
2023-02-03T17:15:28.151Z,15.13
2023-02-03T17:18:12.072Z,18.57
2023-02-03T17:20:58.971Z,17.60
2023-02-03T17:23:42.901Z,21.27
2023-02-03T17:26:26.785Z,20.07
2023-02-03T17:29:11.498Z,30.77
2023-02-03T17:31:55.321Z,15.57
2023-02-03T17:34:39.162Z,7.83
2023-02-03T17:37:24.284Z,7.50
2023-02-03T17:55:19.723Z,14.60
2023-02-03T17:58:04.038Z,13.33
2023-02-03T18:00:47.790Z,11.83
2023-02-03T18:03:31.497Z,25.90
2023-02-03T18:06:16.660Z,31.17
2023-02-03T18:09:02.535Z,16.23
2023-02-03T18:11:47.917Z,17.17
2023-02-03T18:14:31.768Z,20.70
2023-02-03T18:17:15.624Z,19.07
2023-02-03T18:20:00.642Z,18.63
2023-02-03T18:22:45.572Z,19.10
2023-02-03T18:25:29.383Z,18.63
2023-02-03T18:28:16.047Z,19.73
2023-02-03T18:31:00.827Z,26.30
2023-02-03T18:33:46.325Z,17.83
2023-02-03T18:36:30.147Z,27.97
2023-02-03T18:39:15.571Z,21.73
2023-02-03T18:41:59.400Z,6.80
2023-02-03T18:44:45.312Z,3.60
2023-02-03T18:47:29.264Z,3.87
2023-02-03T18:50:13.202Z,7.40
2023-02-03T18:52:57.339Z,6.07
2023-02-03T18:55:42.331Z,4.60
2023-02-03T18:58:26.165Z,16.60
2023-02-03T19:01:11.481Z,43.63
2023-02-03T19:03:56.393Z,30.30
2023-02-03T19:06:45.434Z,23.07
2023-02-03T19:09:29.258Z,14.10
2023-02-03T19:12:13.813Z,32.97
2023-02-03T19:14:57.621Z,36.07
2023-02-03T19:17:42.813Z,24.50
2023-02-03T19:20:26.708Z,23.37
2023-02-03T19:23:11.076Z,22.80
2023-02-03T19:25:55.567Z,20.30
2023-02-03T19:28:39.663Z,13.57
2023-02-03T19:31:23.619Z,11.73
2023-02-03T19:34:08.891Z,12.10
2023-02-03T19:36:52.762Z,12.33
2023-02-03T19:39:36.560Z,11.83
2023-02-03T19:42:20.298Z,12.47
2023-02-03T19:45:05.116Z,12.20
2023-02-03T19:47:48.967Z,9.63
2023-02-03T19:50:34.271Z,9.47
2023-02-03T19:53:19.429Z,8.40
2023-02-03T19:56:03.245Z,15.97
2023-02-03T19:58:52.033Z,10.70
2023-02-03T20:01:36.476Z,10.33
2023-02-03T20:04:20.351Z,13.13
2023-02-03T20:07:05.490Z,7.00
2023-02-03T20:09:49.174Z,5.97
2023-02-03T20:12:32.982Z,5.43
2023-02-03T20:15:16.856Z,5.20
2023-02-03T20:18:00.595Z,6.07
2023-02-03T20:20:44.398Z,7.13
2023-02-03T20:23:29.667Z,12.43
2023-02-03T20:26:14.293Z,10.20
2023-02-03T20:28:58.135Z,9.10
2023-02-03T20:31:42.024Z,15.80
2023-02-03T20:34:27.510Z,14.43
2023-02-03T20:37:11.348Z,13.70
2023-02-03T20:39:56.561Z,21.23
2023-02-03T20:42:41.100Z,12.67
2023-02-03T20:45:25.905Z,9.00
2023-02-03T20:48:12.170Z,17.57
2023-02-03T20:50:56.002Z,17.13
2023-02-03T20:53:40.332Z,9.73
2023-02-03T20:56:26.423Z,8.30
2023-02-03T20:59:12.449Z,7.30
2023-02-03T21:01:56.268Z,9.80
2023-02-03T21:04:57.845Z,7.37
2023-02-03T21:07:41.572Z,9.40
2023-02-03T21:10:26.243Z,11.30
2023-02-03T21:13:21.769Z,10.17
2023-02-03T21:16:16.398Z,9.63
2023-02-03T21:19:03.122Z,10.37
2023-02-03T21:21:47.571Z,8.33
2023-02-03T21:24:35.580Z,8.27
2023-02-03T21:27:28.664Z,9.10
2023-02-03T21:30:30.946Z,7.93
2023-02-03T21:33:30.113Z,8.40
2023-02-03T21:36:18.193Z,9.20
2023-02-03T21:39:02.637Z,8.70
2023-02-03T21:41:46.638Z,9.37
2023-02-03T21:44:33.913Z,7.50
2023-02-03T21:47:20.076Z,7.40
2023-02-03T21:50:04.569Z,9.37
2023-02-03T21:52:48.452Z,16.03
2023-02-03T21:55:32.389Z,13.47
2023-02-03T21:58:23.923Z,13.03
2023-02-03T22:01:08.597Z,8.73
2023-02-03T22:03:55.034Z,7.60
2023-02-03T22:06:44.639Z,9.47
2023-02-03T22:09:28.695Z,9.33
2023-02-03T22:12:12.440Z,10.63
2023-02-03T22:14:56.171Z,9.33
2023-02-03T22:17:40.702Z,7.93
2023-02-03T22:20:25.921Z,7.87
2023-02-03T22:23:09.687Z,8.30
2023-02-03T22:25:53.796Z,9.37
2023-02-03T22:28:38.065Z,10.53
2023-02-03T22:31:22.938Z,10.53
2023-02-03T22:34:06.761Z,11.23
2023-02-03T22:36:51.900Z,19.97
2023-02-03T22:39:35.628Z,12.90
2023-02-03T22:42:19.460Z,10.93
2023-02-03T22:45:03.265Z,8.87
2023-02-03T22:47:47.775Z,8.10
2023-02-03T22:50:35.962Z,9.63
2023-02-03T22:53:21.619Z,9.90
2023-02-03T22:56:05.687Z,9.27
2023-02-03T22:58:49.521Z,9.87
2023-02-03T23:01:34.643Z,10.37
2023-02-03T23:04:18.430Z,8.70
2023-02-03T23:07:02.134Z,9.43
2023-02-03T23:09:47.475Z,9.20
2023-02-03T23:12:31.213Z,10.57
2023-02-03T23:15:18.026Z,9.17
2023-02-03T23:18:01.936Z,9.40
2023-02-03T23:20:45.727Z,6.33
2023-02-03T23:23:29.608Z,7.20
2023-02-03T23:26:14.722Z,8.13
2023-02-03T23:28:58.541Z,6.37
2023-02-03T23:31:42.343Z,6.97
2023-02-03T23:34:43.751Z,6.97
2023-02-03T23:37:27.512Z,8.97
2023-02-03T23:40:12.379Z,8.27
2023-02-03T23:42:58.148Z,9.97
2023-02-03T23:45:42.433Z,10.30
2023-02-03T23:48:26.281Z,12.10
2023-02-03T23:51:10.203Z,10.07
2023-02-03T23:53:53.936Z,11.37
2023-02-03T23:56:37.819Z,9.67
2023-02-03T23:59:23.046Z,9.53
